nws-alerts: Checking more than four warning/county codes can delay the loading of your pages. You should use a cron job to get the data.

Nearby METAR Weather Reports

 

KDMA - Davis/Tucson, Arizona, USA
Distance from station: W 21mi, 34km
Updated: 05/25/2018 5:58pm
Clear
Clear
 Wind from W
Wind: W 10 mph , 17 km/h
Temperature: 97°F , 36°C
Dew Point: 32°F , 0°C
Humidity: 10%
Barometer: 29.90 inHg , 1012.5 hPa
Clouds: Clear
Visibility: 10 miles , 16 km
2018/05/26 00:58 KDMA 260058Z AUTO 28009KT 10SM CLR 36/00 A2990 RMK AO2 SLP083 T03591005 $
KTUS - Tucson, Arizona, USA
Distance from station: W 26mi, 42km
Updated: 05/25/2018 5:53pm
Clear
Clear
 Wind from W
Wind: W 9 mph , 15 km/h
Temperature: 97°F , 36°C
Dew Point: 28°F , -2°C
Humidity: 9%
Barometer: 29.91 inHg , 1012.9 hPa
Clouds: Clear
Visibility: 10 miles , 16 km
2018/05/26 00:53 KTUS 260053Z 26008KT 10SM CLR 36/M02 A2991 RMK AO2 SLP083 T03561017
 
KALK - Pioneer Airfield, Arizona, USA
Distance from station: S 37mi, 60km
Updated: 05/25/2018 5:56pm
Clear
Clear
 Wind from W
Wind: W 14 mph , 22 km/h
Temperature: 86°F , 30°C
Dew Point: 21°F , -6°C
Humidity: 9%
Barometer: 30.08 inHg , 1018.6 hPa
Clouds: Clear
Visibility: 10 miles , 16 km
2018/05/26 00:56 KALK 260056Z AUTO 28012KT 10SM CLR 30/M06 A3008 RMK AO2 SLP098 T03001056
KRYN - Tucson/Ryan Fld, Arizona, USA
Distance from station: W 39mi, 62km
Updated: 05/25/2018 5:45pm
Clear
Clear
 Wind from WSW
Wind: WSW 6 mph , 9 km/h, Gust: 16 mph , 26 km/h
Temperature: 97°F , 36°C
Dew Point: 30°F , -1°C
Humidity: 9%
Barometer: 29.90 inHg , 1012.5 hPa
Clouds: Clear
Visibility: 10 miles , 16 km
2018/05/26 00:45 KRYN 260045Z 24005G14KT 10SM CLR 36/M01 A2990
 
KFHU - Fort Huachuca, Arizona, USA
Distance from station: SSE 39mi, 63km
Updated: 05/25/2018 5:58pm
Few Clouds
Few Clouds
 Wind from W
Wind: W 15 mph , 24 km/h
Temperature: 86°F , 30°C
Dew Point: 21°F , -6°C
Humidity: 9%
Barometer: 30.07 inHg , 1018.3 hPa
Clouds: Few Clouds
Visibility: 10 miles , 16 km
Cloud details: Few Clouds 28000 ft
2018/05/26 00:58 KFHU 260058Z AUTO 27013KT 10SM FEW280 30/M06 A3007 RMK AO2 SLP111 T02991064
KOLS - Nogales, Arizona, USA
Distance from station: SSW 54mi, 86km
Updated: 05/25/2018 5:54pm
Clear
Clear
 Wind from WSW
Wind: WSW 13 mph , 20 km/h
Temperature: 88°F , 31°C
Dew Point: 27°F , -3°C
Humidity: 11%
Barometer: 30.02 inHg , 1016.6 hPa
Clouds: Clear
Visibility: 10 miles , 16 km
2018/05/26 00:54 KOLS 260054Z AUTO 24011KT 10SM CLR 31/M03 A3002 RMK AO2 SLP107 T03061033
 
KDUG - Douglas Bisbee, Arizona, USA
Distance from station: SE 71mi, 114km
Updated: 05/25/2018 5:56pm
Clear
Clear
 Wind from W
Wind: W 9 mph , 15 km/h
Temperature: 91°F , 33°C
Dew Point: 21°F , -6°C
Humidity: 8%
Barometer: 30.00 inHg , 1015.9 hPa
Clouds: Clear
Visibility: 10 miles , 16 km
2018/05/26 00:56 KDUG 260056Z AUTO 26008KT 10SM CLR 33/M06 A3000 RMK AO2 SLP091 T03331061
KSAD - Safford, Arizona, USA
Distance from station: NE 71mi, 114km
Updated: 05/25/2018 5:51pm
Clear
Clear
 Wind from NNW
Wind: NNW 9 mph , 15 km/h
Temperature: 95°F , 35°C
Dew Point: 19°F , -7°C
Humidity: 6%
Barometer: 29.90 inHg , 1012.5 hPa
Clouds: Clear
Visibility: 10 miles , 16 km
2018/05/26 00:51 KSAD 260051Z AUTO 33008KT 10SM CLR 35/M07 A2990 RMK AO2 SLP071 T03501072
 
KCGZ - Casa Granda, Arizona, USA
Distance from station: NW 93mi, 149km
Updated: 05/25/2018 5:56pm
Clear
Clear
 Wind from SSW
Wind: SSW 23 mph , 37 km/h, Gust: 30 mph , 48 km/h
Temperature: 99°F , 37°C
Dew Point: 30°F , -1°C
Humidity: 9%
Barometer: 29.81 inHg , 1009.5 hPa
Clouds: Clear
Visibility: 7 miles , 11 km
2018/05/26 00:56 KCGZ 260056Z AUTO 21020G26KT 190V250 7SM CLR 37/M01 A2981 RMK AO2 PK WND 22026/0056 SLP080 T03671006 $
KLSB - Lordsburg, New Mexico, USA
Distance from station: E 106mi, 171km
Updated: 02/26/2018 1:22pm
NOT Current
Clear
Clear
 Wind from ESE
Wind: ESE 13 mph , 20 km/h, Gust: 18 mph , 30 km/h
Temperature: 63°F , 17°C
Dew Point: 10°F , -12°C
Humidity: 13%
Barometer: 30.04 inHg , 1017.3 hPa
Clouds: Clear
Visibility: 10 miles , 16 km
2018/02/26 20:22 KLSB 262022Z AUTO 11011G16KT 090V150 10SM CLR 17/M12 A3004
 
KPHX - Phoenix/Sky Hrbr, Arizona, USA
Distance from station: NW 126mi, 202km
Updated: 05/25/2018 5:51pm
Partly cloudy
Partly cloudy
 Wind from varies
Wind: varies 7 mph , 11 km/h
Temperature: 99°F , 37°C
Dew Point: 25°F , -4°C
Humidity: 7%
Barometer: 29.78 inHg , 1008.5 hPa
Clouds: Partly cloudy
Visibility: 10 miles , 16 km
Cloud details: Few Clouds 15000 ft
Partly cloudy 25000 ft
2018/05/26 00:51 KPHX 260051Z VRB06KT 10SM FEW150 SCT250 37/M04 A2978 RMK AO2 SLP065 T03671044
KGXF - Gila Bend (aaf), Arizona, USA
Distance from station: WNW 139mi, 223km
Updated: 05/25/2018 5:58pm
Clear
Clear
 Wind from WSW
Wind: WSW 9 mph , 15 km/h
Temperature: 97°F , 36°C
Dew Point: 23°F , -5°C
Humidity: 7%
Barometer: 29.79 inHg , 1008.8 hPa
Clouds: Clear
Visibility: 10 miles , 16 km
2018/05/26 00:58 KGXF 260058Z AUTO 25008KT 10SM CLR 36/M05 A2979 RMK AO2 SLP076 T03601052
 
KSVC - Silver City, New Mexico, USA
Distance from station: ENE 142mi, 228km
Updated: 05/25/2018 6:35pm
Clear
Clear
 Wind from W
Wind: W 12 mph , 19 km/h, Gust: 17 mph , 28 km/h
Temperature: 84°F , 29°C
Dew Point: 9°F , -13°C
Humidity: 5%
Barometer: 30.10 inHg , 1019.3 hPa
Clouds: Clear
Visibility: 10 miles , 16 km
2018/05/26 01:35 KSVC 260135Z AUTO 27010G15KT 10SM CLR 29/M13 A3010 RMK AO2 T02851130
KLUF - Luke Afb/Glendal, Arizona, USA
Distance from station: NW 144mi, 232km
Updated: 12/31/1969 5:00pm
NOT Current
unable to load KLUF data RC=404 Not Found
unable to load KLUF data RC=404 Not Found